createdAt,value
2023-03-03T00:00:18.166Z,39.87
2023-03-03T00:02:45.720Z,39.30
2023-03-03T00:05:17.135Z,41.20
2023-03-03T00:07:45.360Z,36.80
2023-03-03T00:10:13.508Z,38.73
2023-03-03T00:12:51.144Z,37.50
2023-03-03T00:15:19.744Z,40.23
2023-03-03T00:17:47.781Z,40.87
2023-03-03T00:20:27.015Z,39.60
2023-03-03T00:22:54.841Z,36.43
2023-03-03T00:25:40.262Z,38.93
2023-03-03T00:28:21.382Z,38.73
2023-03-03T00:30:49.042Z,36.23
2023-03-03T00:33:32.609Z,37.17
2023-03-03T00:36:35.991Z,36.33
2023-03-03T00:39:32.736Z,37.37
2023-03-03T00:42:02.464Z,36.10
2023-03-03T00:44:37.120Z,37.87
2023-03-03T00:47:23.134Z,39.07
2023-03-03T00:49:50.677Z,38.60
2023-03-03T00:52:19.255Z,41.33
2023-03-03T00:54:46.944Z,38.70
2023-03-03T00:57:14.504Z,38.17
2023-03-03T00:59:43.063Z,37.43
2023-03-03T01:02:10.955Z,39.90
2023-03-03T01:04:38.405Z,40.53
2023-03-03T01:07:06.528Z,39.07
2023-03-03T01:09:34.000Z,38.90
2023-03-03T01:12:01.576Z,39.27
2023-03-03T01:14:29.077Z,41.10
2023-03-03T01:16:56.514Z,40.60
2023-03-03T01:19:24.057Z,41.83
2023-03-03T01:21:51.826Z,40.23
2023-03-03T01:24:19.328Z,40.90
2023-03-03T01:26:46.843Z,41.37
2023-03-03T01:29:14.626Z,38.90
2023-03-03T01:31:42.198Z,38.27
2023-03-03T01:34:09.713Z,41.07
2023-03-03T01:36:37.513Z,41.27
2023-03-03T01:39:05.084Z,38.10
2023-03-03T01:41:33.720Z,40.10
2023-03-03T01:44:01.385Z,41.07
2023-03-03T01:46:42.974Z,39.70
2023-03-03T01:49:15.484Z,40.67
2023-03-03T01:51:46.454Z,40.13
2023-03-03T01:54:19.198Z,40.07
2023-03-03T01:56:46.862Z,39.23
2023-03-03T01:59:16.804Z,41.53
2023-03-03T02:01:44.505Z,38.37
2023-03-03T02:04:11.980Z,41.23
2023-03-03T02:06:41.471Z,40.13
2023-03-03T02:09:12.935Z,41.33
2023-03-03T02:11:43.111Z,40.33
2023-03-03T02:14:11.637Z,40.20
2023-03-03T02:16:43.888Z,40.83
2023-03-03T02:19:17.340Z,40.07
2023-03-03T02:21:44.903Z,42.23
2023-03-03T02:24:47.916Z,41.33
2023-03-03T02:27:15.582Z,40.23
2023-03-03T02:29:44.410Z,40.47
2023-03-03T02:32:12.067Z,40.73
2023-03-03T02:34:50.094Z,38.43
2023-03-03T02:37:17.922Z,39.53
2023-03-03T02:39:45.887Z,40.17
2023-03-03T02:42:19.542Z,41.50
2023-03-03T02:44:51.544Z,40.23
2023-03-03T02:47:19.100Z,40.47
2023-03-03T02:49:46.590Z,40.53
2023-03-03T02:52:15.013Z,39.87
2023-03-03T02:54:45.874Z,38.47
2023-03-03T02:57:13.768Z,39.17
2023-03-03T02:59:41.225Z,40.27
2023-03-03T03:02:12.590Z,40.70
2023-03-03T03:04:40.202Z,42.47
2023-03-03T03:07:08.031Z,42.67
2023-03-03T03:09:37.777Z,40.00
2023-03-03T03:12:05.498Z,41.97
2023-03-03T03:14:35.146Z,40.60
2023-03-03T03:17:02.665Z,41.77
2023-03-03T03:19:30.382Z,42.40
2023-03-03T03:22:01.465Z,45.40
2023-03-03T03:24:30.281Z,41.63
2023-03-03T03:27:02.871Z,42.50
2023-03-03T03:29:30.659Z,40.37
2023-03-03T03:31:58.107Z,43.27
2023-03-03T03:34:25.650Z,42.03
2023-03-03T03:36:54.808Z,41.60
2023-03-03T03:39:24.186Z,41.17
2023-03-03T03:41:53.448Z,41.40
2023-03-03T03:44:21.912Z,41.60
2023-03-03T03:46:49.428Z,43.17
2023-03-03T03:49:17.867Z,42.00
2023-03-03T03:51:46.391Z,44.37
2023-03-03T03:54:17.116Z,41.50
2023-03-03T03:56:44.627Z,43.60
2023-03-03T03:59:12.221Z,42.67
2023-03-03T04:01:39.816Z,41.30
2023-03-03T04:04:07.577Z,42.80
2023-03-03T04:06:35.586Z,42.97
2023-03-03T04:09:04.816Z,44.00
2023-03-03T04:11:32.810Z,44.53
2023-03-03T04:14:00.327Z,42.07
2023-03-03T04:16:28.382Z,43.30
2023-03-03T04:18:56.506Z,43.57
2023-03-03T04:21:25.292Z,42.80
2023-03-03T04:23:54.971Z,43.77
2023-03-03T04:26:22.481Z,41.33
2023-03-03T04:28:50.337Z,43.10
2023-03-03T04:31:18.491Z,42.03
2023-03-03T04:33:46.025Z,42.57
2023-03-03T04:36:13.590Z,41.13
2023-03-03T04:38:41.789Z,43.03
2023-03-03T04:41:10.280Z,40.37
2023-03-03T04:43:39.538Z,40.83
2023-03-03T04:46:07.419Z,44.40
2023-03-03T04:48:38.610Z,43.43
2023-03-03T04:51:06.595Z,43.70
2023-03-03T04:53:36.844Z,43.50
2023-03-03T04:56:05.091Z,42.63
2023-03-03T04:58:32.563Z,43.70
2023-03-03T05:01:00.126Z,43.43
2023-03-03T05:03:29.921Z,43.07
2023-03-03T05:05:57.438Z,42.30
2023-03-03T05:08:25.019Z,43.20
2023-03-03T05:10:53.261Z,42.23
2023-03-03T05:13:20.663Z,45.50
2023-03-03T05:15:51.895Z,45.17
2023-03-03T05:18:20.535Z,41.37
2023-03-03T05:20:48.247Z,42.80
2023-03-03T05:23:15.700Z,41.50
2023-03-03T05:25:43.187Z,42.33
2023-03-03T05:28:11.056Z,42.40
2023-03-03T05:30:38.501Z,42.67
2023-03-03T05:33:06.346Z,42.13
2023-03-03T05:35:34.376Z,42.60
2023-03-03T05:38:04.357Z,41.90
2023-03-03T05:40:32.892Z,41.47
2023-03-03T05:43:00.476Z,44.07
2023-03-03T05:45:27.952Z,42.60
2023-03-03T05:47:55.420Z,43.23
2023-03-03T05:50:23.853Z,42.77
2023-03-03T05:52:51.984Z,39.97
2023-03-03T05:55:19.953Z,42.60
2023-03-03T05:57:47.632Z,41.87
2023-03-03T06:00:15.529Z,41.47
2023-03-03T06:02:43.662Z,42.60
2023-03-03T06:05:11.889Z,40.47
2023-03-03T06:07:39.726Z,42.97
2023-03-03T06:10:07.999Z,45.93
2023-03-03T06:12:39.154Z,44.90
2023-03-03T06:15:07.606Z,43.23
2023-03-03T06:17:35.206Z,44.70
2023-03-03T06:20:04.270Z,41.83
2023-03-03T06:22:32.120Z,44.87
2023-03-03T06:24:59.703Z,43.47
2023-03-03T06:27:27.311Z,43.80
2023-03-03T06:29:54.836Z,43.23
2023-03-03T06:32:22.410Z,43.03
2023-03-03T06:34:49.865Z,42.77
2023-03-03T06:37:17.513Z,41.70
2023-03-03T06:39:45.094Z,41.77
2023-03-03T06:42:12.759Z,44.13
2023-03-03T06:44:40.311Z,42.30
2023-03-03T06:47:08.334Z,42.23
2023-03-03T06:49:35.793Z,43.63
2023-03-03T06:52:10.779Z,41.47
2023-03-03T06:54:38.485Z,44.27
2023-03-03T06:57:15.990Z,44.47
2023-03-03T06:59:43.689Z,43.43
2023-03-03T07:02:17.254Z,42.97
2023-03-03T07:04:47.200Z,43.20
2023-03-03T07:07:20.762Z,42.53
2023-03-03T07:09:49.469Z,43.30
2023-03-03T07:12:18.929Z,43.00
2023-03-03T07:14:51.725Z,42.23
2023-03-03T07:17:20.332Z,44.30
2023-03-03T07:19:48.563Z,41.80
2023-03-03T07:22:24.867Z,43.23
2023-03-03T07:24:54.449Z,42.63
2023-03-03T07:27:29.321Z,42.23
2023-03-03T07:30:13.679Z,43.30
2023-03-03T07:32:43.139Z,43.77
2023-03-03T07:35:39.942Z,42.13
2023-03-03T07:38:30.233Z,40.30
2023-03-03T07:40:59.524Z,39.37
2023-03-03T07:43:37.549Z,41.73
2023-03-03T07:46:31.824Z,41.27
2023-03-03T07:48:59.886Z,41.87
2023-03-03T07:51:37.338Z,42.93
2023-03-03T07:54:28.728Z,41.00
2023-03-03T07:57:15.064Z,41.83
2023-03-03T07:59:48.842Z,39.77
2023-03-03T08:02:36.519Z,41.07
2023-03-03T08:05:22.116Z,41.80
2023-03-03T08:07:51.032Z,40.83
2023-03-03T08:10:43.573Z,41.17
2023-03-03T08:13:21.565Z,41.83
2023-03-03T08:16:02.170Z,41.50
2023-03-03T08:18:31.254Z,41.60
2023-03-03T08:20:59.835Z,40.33
2023-03-03T08:23:27.397Z,42.63
2023-03-03T08:25:54.870Z,42.37
2023-03-03T08:28:22.773Z,42.33
2023-03-03T08:30:50.697Z,41.70
2023-03-03T08:33:18.989Z,41.20
2023-03-03T08:35:47.069Z,40.40
2023-03-03T08:38:15.784Z,40.53
2023-03-03T08:40:43.193Z,42.43
2023-03-03T08:43:11.297Z,42.50
2023-03-03T08:45:38.772Z,40.43
2023-03-03T08:48:06.595Z,39.90
2023-03-03T08:50:34.124Z,40.97
2023-03-03T08:53:01.626Z,41.67
2023-03-03T08:55:29.078Z,42.00
2023-03-03T08:57:56.718Z,44.43
2023-03-03T09:00:24.289Z,42.27
2023-03-03T09:02:51.845Z,41.40
2023-03-03T09:05:20.288Z,40.50
2023-03-03T09:07:48.221Z,39.40
2023-03-03T09:10:18.850Z,39.23
2023-03-03T09:12:50.300Z,40.80
2023-03-03T09:15:20.920Z,40.57
2023-03-03T09:17:48.718Z,40.33
2023-03-03T09:20:29.442Z,42.40
2023-03-03T09:22:56.928Z,40.67
2023-03-03T09:25:30.613Z,40.90
2023-03-03T09:27:58.410Z,41.43
2023-03-03T09:30:39.953Z,39.80
2023-03-03T09:33:27.065Z,40.57
2023-03-03T09:36:06.920Z,40.93
2023-03-03T09:38:35.083Z,39.30
2023-03-03T09:41:31.996Z,42.13
2023-03-03T09:44:17.408Z,42.23
2023-03-03T09:46:52.596Z,40.53
2023-03-03T09:49:33.380Z,42.47
2023-03-03T09:52:10.042Z,42.00
2023-03-03T09:54:43.550Z,39.73
2023-03-03T09:57:32.266Z,41.83
2023-03-03T10:00:18.315Z,44.70
2023-03-03T10:03:11.859Z,41.40
2023-03-03T10:05:52.231Z,43.33
2023-03-03T10:08:42.046Z,41.53
2023-03-03T10:11:14.065Z,41.07
2023-03-03T10:13:49.861Z,42.10
2023-03-03T10:16:45.500Z,41.13
2023-03-03T10:19:34.196Z,41.90
2023-03-03T10:22:15.636Z,43.10
2023-03-03T10:25:03.575Z,39.73
2023-03-03T10:27:51.381Z,41.30
2023-03-03T10:30:54.797Z,42.47
2023-03-03T10:33:37.474Z,40.40
2023-03-03T10:36:23.841Z,41.37
2023-03-03T10:39:00.965Z,43.30
2023-03-03T10:41:51.177Z,43.00
2023-03-03T10:44:41.415Z,43.57
2023-03-03T10:47:35.858Z,42.30
2023-03-03T10:50:17.771Z,42.87
2023-03-03T10:53:08.274Z,44.60
2023-03-03T10:56:02.098Z,42.43
2023-03-03T10:59:07.976Z,41.90
2023-03-03T11:01:54.090Z,42.77
2023-03-03T11:04:50.632Z,43.40
2023-03-03T11:07:37.871Z,41.93
2023-03-03T11:10:34.699Z,43.77
2023-03-03T11:13:13.715Z,41.87
2023-03-03T11:16:05.768Z,41.83
2023-03-03T11:19:05.483Z,41.67
2023-03-03T11:21:53.468Z,43.33
2023-03-03T11:27:17.628Z,43.73
2023-03-03T11:30:17.468Z,42.57
2023-03-03T11:33:05.438Z,44.87
2023-03-03T11:35:51.270Z,40.30
2023-03-03T11:38:35.193Z,41.83
2023-03-03T11:41:05.753Z,41.77
2023-03-03T11:43:38.080Z,42.20
2023-03-03T11:46:26.442Z,43.67
2023-03-03T11:49:05.493Z,42.17
2023-03-03T11:51:45.409Z,41.70
2023-03-03T11:54:29.013Z,42.33
2023-03-03T11:56:59.741Z,41.07
2023-03-03T11:59:56.886Z,46.07
2023-03-03T12:02:29.192Z,47.27
2023-03-03T12:05:08.112Z,42.30
2023-03-03T12:07:48.121Z,43.70
2023-03-03T12:10:35.961Z,45.47
2023-03-03T12:13:13.254Z,42.73
2023-03-03T12:16:01.197Z,44.97
2023-03-03T12:18:47.852Z,44.67
2023-03-03T12:21:34.717Z,43.27
2023-03-03T12:24:22.409Z,42.93
2023-03-03T12:27:06.967Z,44.97
2023-03-03T12:29:57.495Z,42.63
2023-03-03T12:32:44.092Z,42.20
2023-03-03T12:35:41.290Z,44.47
2023-03-03T12:38:27.874Z,44.10
2023-03-03T12:41:15.533Z,43.70
2023-03-03T12:43:55.958Z,44.40
2023-03-03T12:46:29.549Z,42.77
2023-03-03T12:48:57.655Z,41.83
2023-03-03T12:51:43.568Z,44.77
2023-03-03T12:54:30.089Z,43.37
2023-03-03T12:57:36.766Z,43.30
2023-03-03T13:00:29.200Z,41.17
2023-03-03T13:03:30.349Z,41.10
2023-03-03T13:06:06.559Z,40.90
2023-03-03T13:08:47.614Z,44.20
2023-03-03T13:11:32.483Z,43.13
2023-03-03T13:14:18.488Z,40.77
2023-03-03T13:17:12.224Z,42.10
2023-03-03T13:19:42.820Z,42.73
2023-03-03T13:22:32.816Z,42.73
2023-03-03T13:25:04.398Z,43.67
2023-03-03T13:27:39.489Z,43.87
2023-03-03T13:30:27.350Z,44.53
2023-03-03T13:33:02.821Z,43.33
2023-03-03T13:35:45.368Z,45.20
2023-03-03T13:38:19.330Z,44.43
2023-03-03T13:40:49.421Z,40.77
2023-03-03T13:43:22.146Z,41.93
2023-03-03T13:46:13.741Z,43.40
2023-03-03T13:48:59.891Z,43.53
2023-03-03T13:51:59.449Z,42.50
2023-03-03T13:54:49.778Z,44.17
2023-03-03T13:57:37.420Z,42.00
2023-03-03T14:00:16.516Z,42.40
2023-03-03T14:03:00.748Z,43.90
2023-03-03T14:05:39.293Z,44.20
2023-03-03T14:08:13.855Z,42.67
2023-03-03T14:10:50.107Z,42.37
2023-03-03T14:13:24.792Z,42.47
2023-03-03T14:15:57.720Z,42.90
2023-03-03T14:18:33.115Z,41.93
2023-03-03T14:21:19.829Z,41.23
2023-03-03T14:23:57.387Z,42.93
2023-03-03T14:26:24.936Z,41.30
2023-03-03T14:28:53.134Z,43.53
2023-03-03T14:31:27.880Z,42.03
2023-03-03T14:34:02.606Z,42.03
2023-03-03T14:36:37.332Z,42.73
2023-03-03T14:39:24.713Z,39.10
2023-03-03T14:41:53.213Z,40.87
2023-03-03T14:44:37.449Z,41.50
2023-03-03T14:47:31.386Z,41.43
2023-03-03T14:50:03.673Z,39.97
2023-03-03T14:52:33.989Z,40.67
2023-03-03T14:55:05.404Z,38.67
2023-03-03T14:57:51.752Z,37.90
2023-03-03T15:00:30.076Z,37.30
2023-03-03T15:03:20.976Z,39.23
2023-03-03T15:05:57.413Z,36.17
2023-03-03T15:08:36.444Z,39.43
2023-03-03T15:11:28.442Z,36.27
2023-03-03T15:14:05.547Z,38.33
2023-03-03T15:16:35.647Z,38.83
2023-03-03T15:19:14.865Z,37.67
2023-03-03T15:21:46.721Z,37.73
2023-03-03T15:24:30.157Z,35.50
2023-03-03T15:27:03.125Z,36.83
2023-03-03T15:29:33.802Z,37.87
2023-03-03T15:32:19.870Z,35.13
2023-03-03T15:35:07.774Z,36.37
2023-03-03T15:37:42.368Z,36.77
2023-03-03T15:40:26.162Z,38.10
2023-03-03T15:43:13.478Z,36.40
2023-03-03T15:45:59.756Z,36.87
2023-03-03T15:48:53.633Z,36.83
2023-03-03T15:51:57.238Z,36.33
2023-03-03T15:54:35.129Z,36.73
2023-03-03T15:57:13.296Z,35.10
2023-03-03T15:59:51.186Z,38.17
2023-03-03T16:02:23.082Z,39.83
2023-03-03T16:05:03.656Z,37.10
2023-03-03T16:07:43.695Z,40.80
2023-03-03T16:10:34.212Z,37.17
2023-03-03T16:13:22.364Z,37.97
2023-03-03T16:16:22.118Z,38.27
2023-03-03T16:19:16.735Z,35.90
2023-03-03T16:22:02.634Z,35.90
2023-03-03T16:24:40.097Z,36.83
2023-03-03T16:27:30.412Z,37.20
2023-03-03T16:30:20.469Z,37.30
2023-03-03T16:33:11.209Z,37.37
2023-03-03T16:35:52.351Z,35.67
2023-03-03T16:38:24.447Z,36.83
2023-03-03T16:40:54.847Z,37.27
2023-03-03T16:43:45.493Z,35.07
2023-03-03T16:46:39.101Z,37.00
2023-03-03T16:53:26.738Z,39.17
2023-03-03T16:56:14.399Z,35.93
2023-03-03T16:59:02.096Z,35.73
2023-03-03T17:02:01.487Z,35.37
2023-03-03T17:04:44.173Z,35.03
2023-03-03T17:07:39.503Z,35.77
2023-03-03T17:10:25.448Z,33.97
2023-03-03T17:13:13.138Z,34.97
2023-03-03T17:16:00.879Z,34.30
2023-03-03T17:19:01.115Z,33.30
2023-03-03T17:21:52.336Z,34.37
2023-03-03T17:58:04.536Z,32.30
2023-03-03T18:00:37.327Z,33.47
2023-03-03T18:03:31.751Z,33.63
2023-03-03T18:06:10.006Z,33.77
2023-03-03T18:09:13.760Z,33.50
2023-03-03T18:12:05.490Z,33.97
2023-03-03T18:14:53.249Z,33.90
2023-03-03T18:17:31.773Z,34.13
2023-03-03T18:20:19.493Z,34.27
2023-03-03T18:22:48.380Z,36.63
2023-03-03T18:25:17.374Z,60.80
2023-03-03T18:28:20.849Z,49.53
2023-03-03T18:30:54.458Z,41.63
2023-03-03T18:33:48.015Z,39.70
2023-03-03T18:36:24.514Z,38.73
2023-03-03T18:38:52.862Z,39.53
2023-03-03T18:41:27.044Z,40.30
2023-03-03T18:43:56.168Z,41.23
2023-03-03T18:46:43.795Z,41.23
2023-03-03T18:49:12.956Z,41.77
2023-03-03T18:51:49.830Z,40.93
2023-03-03T18:54:30.578Z,41.57
2023-03-03T18:57:18.563Z,40.57
2023-03-03T19:00:10.295Z,42.70
2023-03-03T19:02:46.314Z,42.87
2023-03-03T19:05:23.705Z,42.83
2023-03-03T19:07:52.763Z,43.97
2023-03-03T19:10:40.557Z,46.03
2023-03-03T19:13:27.061Z,45.03
2023-03-03T19:15:57.574Z,44.43
2023-03-03T19:18:28.031Z,45.13
2023-03-03T19:21:15.850Z,45.07
2023-03-03T19:24:00.604Z,45.77
2023-03-03T19:26:48.604Z,45.60
2023-03-03T19:29:36.753Z,43.97
2023-03-03T19:32:26.549Z,43.27
2023-03-03T19:35:14.278Z,44.10
2023-03-03T19:37:51.627Z,46.50
2023-03-03T19:40:26.151Z,44.77
2023-03-03T19:43:07.902Z,45.60
2023-03-03T19:45:48.003Z,45.40
2023-03-03T19:48:52.207Z,47.60
2023-03-03T19:51:30.471Z,49.73
2023-03-03T20:05:21.672Z,46.60
2023-03-03T20:10:48.963Z,46.73
2023-03-03T20:13:24.613Z,47.57
2023-03-03T20:15:58.914Z,48.77
2023-03-03T20:18:49.171Z,47.43
2023-03-03T20:21:39.691Z,47.00
2023-03-03T20:24:26.244Z,48.27
2023-03-03T20:26:59.229Z,47.47
2023-03-03T20:29:41.078Z,46.60
2023-03-03T20:32:14.208Z,49.13
2023-03-03T20:35:00.448Z,48.03
2023-03-03T20:37:57.337Z,46.13
2023-03-03T20:40:38.680Z,46.03
2023-03-03T20:43:32.512Z,47.23
2023-03-03T20:46:25.780Z,47.63
2023-03-03T20:49:11.816Z,46.77
2023-03-03T20:51:59.860Z,48.63
2023-03-03T20:54:35.726Z,46.33
2023-03-03T20:57:23.849Z,48.07
2023-03-03T20:59:58.956Z,44.23
2023-03-03T21:02:59.959Z,47.53
2023-03-03T21:05:27.456Z,47.63
2023-03-03T21:07:56.556Z,48.77
2023-03-03T21:10:25.451Z,47.03
2023-03-03T21:12:53.860Z,49.93
2023-03-03T21:15:31.285Z,47.50
2023-03-03T21:17:59.753Z,48.97
2023-03-03T21:20:36.291Z,49.60
2023-03-03T21:23:04.298Z,48.73
2023-03-03T21:26:07.084Z,47.33
2023-03-03T21:28:35.534Z,48.83
2023-03-03T21:31:15.981Z,48.37
2023-03-03T21:33:44.579Z,49.83
2023-03-03T21:36:13.377Z,48.87
2023-03-03T21:38:40.876Z,48.73
2023-03-03T21:41:08.728Z,48.70
2023-03-03T21:44:02.258Z,50.03
2023-03-03T21:46:29.791Z,47.20
2023-03-03T21:48:57.197Z,48.83
2023-03-03T21:51:25.468Z,50.03
2023-03-03T21:53:53.057Z,49.90
2023-03-03T21:56:20.640Z,49.67
2023-03-03T21:58:48.060Z,49.37
2023-03-03T22:01:15.635Z,49.17
2023-03-03T22:03:45.074Z,49.80
2023-03-03T22:06:12.659Z,52.47
2023-03-03T22:08:40.108Z,49.10
2023-03-03T22:11:07.597Z,48.53
2023-03-03T22:13:35.015Z,52.07
2023-03-03T22:16:02.639Z,51.30
2023-03-03T22:18:30.190Z,50.50
2023-03-03T22:20:57.737Z,52.07
2023-03-03T22:23:25.707Z,49.07
2023-03-03T22:25:53.152Z,48.77
2023-03-03T22:28:20.597Z,53.70
2023-03-03T22:30:48.099Z,50.50
2023-03-03T22:33:15.538Z,51.60
2023-03-03T22:35:42.977Z,50.80
2023-03-03T22:38:10.536Z,51.70
2023-03-03T22:40:37.996Z,52.27
2023-03-03T22:43:06.518Z,53.00
2023-03-03T22:45:34.435Z,52.60
2023-03-03T22:48:01.830Z,53.43
2023-03-03T22:50:29.292Z,52.63
2023-03-03T22:52:56.786Z,53.63
2023-03-03T22:55:24.280Z,55.37
2023-03-03T22:57:51.742Z,53.50
2023-03-03T23:00:20.584Z,54.40
2023-03-03T23:02:48.001Z,55.90
2023-03-03T23:05:15.771Z,52.30
2023-03-03T23:07:43.250Z,52.33
2023-03-03T23:10:11.178Z,56.37
2023-03-03T23:12:38.996Z,51.00
2023-03-03T23:15:13.251Z,53.63
2023-03-03T23:17:44.333Z,52.23
2023-03-03T23:20:12.928Z,53.60
2023-03-03T23:22:40.450Z,50.13
2023-03-03T23:25:08.476Z,52.37
2023-03-03T23:27:35.943Z,50.43
2023-03-03T23:30:03.916Z,51.53
2023-03-03T23:32:31.638Z,54.07
2023-03-03T23:34:59.329Z,48.87
2023-03-03T23:37:26.956Z,51.67
2023-03-03T23:39:54.447Z,51.43
2023-03-03T23:42:21.899Z,50.17
2023-03-03T23:44:49.364Z,51.23
2023-03-03T23:47:17.281Z,56.03
2023-03-03T23:49:44.813Z,50.50
2023-03-03T23:52:12.256Z,55.43
2023-03-03T23:54:39.759Z,49.47
2023-03-03T23:57:08.214Z,50.90
2023-03-03T23:59:36.022Z,53.77
